createdAt,value
2023-05-06T00:02:16.195Z,5.02
2023-05-06T00:04:43.388Z,5.00
2023-05-06T00:07:10.646Z,5.01
2023-05-06T00:09:37.499Z,5.01
2023-05-06T00:12:05.654Z,5.04
2023-05-06T00:14:32.599Z,5.03
2023-05-06T00:16:59.735Z,5.02
2023-05-06T00:19:27.497Z,5.03
2023-05-06T00:21:55.944Z,5.03
2023-05-06T00:24:23.035Z,5.02
2023-05-06T00:26:50.470Z,5.01
2023-05-06T00:29:17.444Z,5.01
2023-05-06T00:31:45.425Z,5.04
2023-05-06T00:34:12.482Z,5.07
2023-05-06T00:36:39.670Z,5.07
2023-05-06T00:39:06.505Z,5.08
2023-05-06T00:41:34.096Z,5.06
2023-05-06T00:44:01.044Z,5.08
2023-05-06T00:46:28.224Z,5.10
2023-05-06T00:48:55.700Z,5.15
2023-05-06T00:51:23.072Z,5.14
2023-05-06T00:53:50.421Z,5.17
2023-05-06T00:56:20.586Z,5.19
2023-05-06T00:58:48.368Z,5.23
2023-05-06T01:01:15.804Z,5.25
2023-05-06T01:03:42.901Z,5.28
2023-05-06T01:06:32.603Z,5.30
2023-05-06T01:09:32.009Z,5.31
2023-05-06T01:12:09.355Z,5.30
2023-05-06T01:14:54.324Z,5.26
2023-05-06T01:17:26.598Z,5.28
2023-05-06T01:19:58.447Z,5.27
2023-05-06T01:22:27.238Z,5.26
2023-05-06T01:24:54.039Z,5.25
2023-05-06T01:27:21.944Z,5.24
2023-05-06T01:29:49.355Z,5.21
2023-05-06T01:32:19.417Z,5.18
2023-05-06T01:35:17.910Z,5.11
2023-05-06T01:37:56.644Z,5.05
2023-05-06T01:40:27.522Z,5.00
2023-05-06T01:42:55.749Z,4.98
2023-05-06T01:45:27.767Z,4.94
2023-05-06T01:47:56.954Z,4.91
2023-05-06T01:50:23.943Z,4.85
2023-05-06T01:53:01.984Z,4.79
2023-05-06T01:55:29.396Z,4.76
2023-05-06T01:57:59.602Z,4.72
2023-05-06T02:00:26.710Z,4.65
2023-05-06T02:02:54.132Z,4.58
2023-05-06T02:05:21.217Z,4.55
2023-05-06T02:07:48.452Z,4.50
2023-05-06T02:10:15.404Z,4.46
2023-05-06T02:12:42.694Z,4.42
2023-05-06T02:15:10.495Z,4.40
2023-05-06T02:17:38.707Z,4.34
2023-05-06T02:20:06.238Z,4.29
2023-05-06T02:22:33.372Z,4.28
2023-05-06T02:25:00.197Z,4.24
2023-05-06T02:27:27.723Z,4.20
2023-05-06T02:29:54.636Z,4.15
2023-05-06T02:32:21.858Z,4.12
2023-05-06T02:34:48.845Z,4.10
2023-05-06T02:37:16.219Z,4.08
2023-05-06T02:39:43.071Z,4.06
2023-05-06T02:42:14.045Z,4.05
2023-05-06T02:44:40.966Z,4.05
2023-05-06T02:47:08.163Z,4.03
2023-05-06T02:49:35.070Z,4.02
2023-05-06T02:52:02.308Z,4.03
2023-05-06T02:54:29.168Z,4.02
2023-05-06T02:56:56.362Z,4.03
2023-05-06T02:59:23.792Z,4.08
2023-05-06T03:01:50.972Z,4.13
2023-05-06T03:04:18.037Z,4.19
2023-05-06T03:06:45.165Z,4.22
2023-05-06T03:09:11.976Z,4.26
2023-05-06T03:11:39.056Z,4.32
2023-05-06T03:14:05.989Z,4.41
2023-05-06T03:16:33.229Z,4.56
2023-05-06T03:19:00.343Z,4.65
2023-05-06T03:21:27.644Z,4.72
2023-05-06T03:23:54.601Z,4.79
2023-05-06T03:26:21.773Z,4.89
2023-05-06T03:28:48.640Z,4.98
2023-05-06T03:31:16.183Z,5.07
2023-05-06T03:33:43.097Z,5.18
2023-05-06T03:36:10.228Z,5.30
2023-05-06T03:38:37.029Z,5.41
2023-05-06T03:41:04.843Z,5.55
2023-05-06T03:43:31.688Z,5.68
2023-05-06T03:45:58.840Z,5.81
2023-05-06T03:48:25.965Z,5.97
2023-05-06T03:50:53.184Z,6.12
2023-05-06T03:53:20.216Z,6.29
2023-05-06T03:55:47.430Z,6.48
2023-05-06T03:58:14.281Z,6.65
2023-05-06T04:00:41.593Z,6.84
2023-05-06T04:03:08.543Z,7.02
2023-05-06T04:05:36.329Z,7.23
2023-05-06T04:08:03.306Z,7.42
2023-05-06T04:10:31.120Z,7.62
2023-05-06T04:12:58.071Z,7.80
2023-05-06T04:15:25.491Z,7.97
2023-05-06T04:17:52.414Z,8.14
2023-05-06T04:20:20.418Z,8.31
2023-05-06T04:22:47.301Z,8.52
2023-05-06T04:25:14.421Z,8.70
2023-05-06T04:27:41.517Z,8.92
2023-05-06T04:30:09.589Z,9.02
2023-05-06T04:32:37.025Z,9.14
2023-05-06T04:35:04.910Z,9.35
2023-05-06T04:37:31.736Z,9.54
2023-05-06T04:39:58.856Z,9.69
2023-05-06T04:42:25.728Z,9.92
2023-05-06T04:44:52.980Z,10.15
2023-05-06T04:47:19.808Z,10.39
2023-05-06T04:49:47.282Z,10.50
2023-05-06T04:52:14.141Z,10.57
2023-05-06T04:54:42.573Z,10.83
2023-05-06T04:57:10.358Z,11.06
2023-05-06T04:59:37.490Z,11.31
2023-05-06T05:02:04.498Z,11.52
2023-05-06T05:04:31.622Z,11.79
2023-05-06T05:06:58.773Z,12.12
2023-05-06T05:09:26.421Z,12.32
2023-05-06T05:11:53.407Z,12.40
2023-05-06T05:14:20.502Z,12.58
2023-05-06T05:16:47.439Z,12.72
2023-05-06T05:19:14.589Z,12.81
2023-05-06T05:21:41.460Z,12.91
2023-05-06T05:24:08.652Z,13.00
2023-05-06T05:26:35.621Z,13.03
2023-05-06T05:29:02.947Z,13.18
2023-05-06T05:31:31.462Z,13.43
2023-05-06T05:33:58.678Z,13.58
2023-05-06T05:36:26.089Z,13.52
2023-05-06T05:38:53.259Z,13.51
2023-05-06T05:41:20.143Z,13.19
2023-05-06T05:43:47.299Z,12.98
2023-05-06T05:46:14.432Z,12.85
2023-05-06T05:48:42.061Z,12.62
2023-05-06T05:51:08.956Z,12.25
2023-05-06T05:53:36.237Z,11.99
2023-05-06T05:56:03.042Z,12.02
2023-05-06T05:58:30.196Z,11.96
2023-05-06T06:00:57.053Z,11.81
2023-05-06T06:03:24.271Z,11.84
2023-05-06T06:05:53.237Z,12.24
2023-05-06T06:08:20.604Z,12.58
2023-05-06T06:10:47.483Z,12.75
2023-05-06T06:13:14.722Z,12.76
2023-05-06T06:15:41.657Z,13.17
2023-05-06T06:18:09.031Z,13.65
2023-05-06T06:20:36.652Z,13.61
2023-05-06T06:23:03.783Z,13.71
2023-05-06T06:25:30.653Z,14.02
2023-05-06T06:27:57.899Z,14.23
2023-05-06T06:30:24.927Z,14.29
2023-05-06T06:32:53.613Z,14.69
2023-05-06T06:35:20.688Z,15.25
2023-05-06T06:37:47.992Z,15.71
2023-05-06T06:40:15.219Z,16.08
2023-05-06T06:42:42.470Z,15.98
2023-05-06T06:45:10.116Z,15.71
2023-05-06T06:47:37.603Z,15.05
2023-05-06T06:50:04.918Z,14.27
2023-05-06T06:52:32.086Z,14.24
2023-05-06T06:54:58.988Z,14.28
2023-05-06T06:57:26.657Z,14.34
2023-05-06T06:59:54.837Z,14.24
2023-05-06T07:02:22.492Z,14.35
2023-05-06T07:04:49.433Z,14.71
2023-05-06T07:07:16.572Z,15.14
2023-05-06T07:09:44.520Z,15.65
2023-05-06T07:12:12.440Z,16.03
2023-05-06T07:14:39.542Z,16.15
2023-05-06T07:17:06.688Z,16.15
2023-05-06T07:19:33.621Z,16.30
2023-05-06T07:22:01.053Z,16.59
2023-05-06T07:24:27.905Z,16.92
2023-05-06T07:26:55.087Z,17.39
2023-05-06T07:29:21.953Z,17.93
2023-05-06T07:31:49.085Z,18.04
2023-05-06T07:34:15.899Z,17.50
2023-05-06T07:36:44.805Z,16.88
2023-05-06T07:39:12.410Z,16.60
2023-05-06T07:41:39.898Z,17.07
2023-05-06T07:44:06.892Z,17.31
2023-05-06T07:46:34.198Z,17.47
2023-05-06T07:49:01.096Z,17.59
2023-05-06T07:51:28.285Z,17.32
2023-05-06T07:53:55.188Z,17.04
2023-05-06T07:56:22.394Z,17.20
2023-05-06T07:58:49.432Z,17.72
2023-05-06T08:01:16.699Z,18.08
2023-05-06T08:03:44.162Z,18.14
2023-05-06T08:06:11.444Z,18.49
2023-05-06T08:08:38.298Z,18.78
2023-05-06T08:11:05.541Z,19.18
2023-05-06T08:13:33.623Z,19.72
2023-05-06T08:16:02.453Z,19.84
2023-05-06T08:18:30.064Z,20.19
2023-05-06T08:20:57.290Z,20.70
2023-05-06T08:23:24.292Z,20.76
2023-05-06T08:25:51.994Z,20.41
2023-05-06T08:28:19.534Z,19.86
2023-05-06T08:30:48.482Z,20.14
2023-05-06T08:33:15.444Z,20.65
2023-05-06T08:35:42.586Z,20.60
2023-05-06T08:38:09.466Z,20.89
2023-05-06T08:40:43.031Z,20.68
2023-05-06T08:43:14.828Z,20.42
2023-05-06T08:45:42.682Z,20.47
2023-05-06T08:48:09.908Z,20.58
2023-05-06T08:50:42.355Z,21.16
2023-05-06T08:53:13.651Z,21.18
2023-05-06T08:55:42.602Z,21.41
2023-05-06T08:58:11.915Z,21.43
2023-05-06T09:00:39.512Z,21.41
2023-05-06T09:03:06.730Z,21.18
2023-05-06T09:05:34.124Z,20.50
2023-05-06T09:08:01.065Z,19.86
2023-05-06T09:10:54.237Z,19.65
2023-05-06T09:13:21.144Z,19.81
2023-05-06T09:15:49.214Z,19.82
2023-05-06T09:18:17.186Z,20.00
2023-05-06T09:20:46.920Z,20.43
2023-05-06T09:23:16.001Z,20.85
2023-05-06T09:25:44.568Z,21.21
2023-05-06T09:28:13.538Z,21.10
2023-05-06T09:30:42.275Z,20.86
2023-05-06T09:33:09.984Z,20.55
2023-05-06T09:35:41.231Z,20.12
2023-05-06T09:38:09.013Z,19.64
2023-05-06T09:40:37.492Z,19.47
2023-05-06T09:43:05.178Z,19.43
2023-05-06T09:45:33.295Z,18.83
2023-05-06T09:48:01.185Z,18.47
2023-05-06T09:50:28.834Z,18.16
2023-05-06T09:52:56.370Z,18.33
2023-05-06T09:55:23.781Z,18.67
2023-05-06T09:57:50.768Z,19.01
2023-05-06T10:00:18.725Z,19.17
2023-05-06T10:02:47.895Z,18.97
2023-05-06T10:05:17.329Z,18.85
2023-05-06T10:07:46.243Z,18.67
2023-05-06T10:10:13.773Z,18.62
2023-05-06T10:12:40.950Z,18.50
2023-05-06T10:15:09.374Z,18.37
2023-05-06T10:17:39.770Z,18.20
2023-05-06T10:20:09.760Z,17.77
2023-05-06T10:23:03.572Z,17.41
2023-05-06T10:25:37.259Z,17.17
2023-05-06T10:28:14.547Z,17.01
2023-05-06T10:30:58.647Z,16.89
2023-05-06T10:33:26.292Z,16.77
2023-05-06T10:36:14.501Z,16.74
2023-05-06T10:38:43.732Z,16.68
2023-05-06T10:41:12.624Z,16.52
2023-05-06T10:43:42.028Z,16.46
2023-05-06T10:46:11.339Z,16.40
2023-05-06T10:48:40.410Z,16.34
2023-05-06T10:51:16.777Z,16.27
2023-05-06T10:53:55.682Z,16.24
2023-05-06T10:56:22.840Z,16.19
2023-05-06T10:58:49.769Z,16.08
2023-05-06T11:01:17.535Z,16.06
2023-05-06T11:03:44.639Z,16.09
2023-05-06T11:06:12.045Z,16.15
2023-05-06T11:08:39.242Z,16.25
2023-05-06T11:11:49.215Z,16.30
2023-05-06T11:14:25.951Z,16.36
2023-05-06T11:16:55.547Z,16.40
2023-05-06T11:19:23.849Z,16.31
2023-05-06T11:21:51.499Z,16.24
2023-05-06T11:24:28.660Z,16.27
2023-05-06T11:26:57.021Z,16.37
2023-05-06T11:29:24.388Z,16.49
2023-05-06T11:31:54.177Z,16.61
2023-05-06T11:34:26.802Z,16.81
2023-05-06T11:37:06.061Z,16.98
2023-05-06T11:39:40.590Z,17.30
2023-05-06T11:42:09.161Z,17.75
2023-05-06T11:44:38.138Z,18.41
2023-05-06T11:47:09.433Z,18.59
2023-05-06T11:49:41.265Z,18.73
2023-05-06T11:52:13.097Z,18.62
2023-05-06T11:54:41.677Z,18.61
2023-05-06T11:57:09.836Z,18.75
2023-05-06T11:59:38.362Z,18.89
2023-05-06T12:02:07.775Z,19.13
2023-05-06T12:04:38.796Z,19.36
2023-05-06T12:07:07.729Z,19.41
2023-05-06T12:09:37.083Z,19.36
2023-05-06T12:12:05.407Z,19.35
2023-05-06T12:14:32.673Z,19.43
2023-05-06T12:17:00.022Z,19.65
2023-05-06T12:19:28.413Z,19.80
2023-05-06T12:21:55.891Z,19.91
2023-05-06T12:24:30.009Z,20.04
2023-05-06T12:26:57.168Z,20.08
2023-05-06T12:29:24.030Z,19.97
2023-05-06T12:32:08.637Z,20.01
2023-05-06T12:34:40.436Z,20.04
2023-05-06T12:37:08.852Z,19.88
2023-05-06T12:39:37.268Z,19.60
2023-05-06T12:42:05.096Z,19.31
2023-05-06T12:44:37.973Z,19.15
2023-05-06T12:47:07.533Z,19.08
2023-05-06T12:49:51.093Z,19.17
2023-05-06T12:52:20.390Z,19.18
2023-05-06T12:54:47.971Z,19.06
2023-05-06T12:57:15.894Z,19.03
2023-05-06T12:59:44.333Z,18.99
2023-05-06T13:02:12.026Z,18.95
2023-05-06T13:04:39.462Z,19.03
2023-05-06T13:07:06.742Z,18.93
2023-05-06T13:09:33.766Z,18.93
2023-05-06T13:12:01.341Z,18.85
2023-05-06T13:14:28.222Z,18.85
2023-05-06T13:16:56.122Z,18.78
2023-05-06T13:19:32.435Z,18.79
2023-05-06T13:22:01.725Z,18.75
2023-05-06T13:24:29.320Z,18.71
2023-05-06T13:26:57.268Z,18.69
2023-05-06T13:29:24.650Z,18.67
2023-05-06T13:31:52.350Z,18.61
2023-05-06T13:34:19.297Z,18.57
2023-05-06T13:36:49.132Z,18.57
2023-05-06T13:39:16.284Z,18.59
2023-05-06T13:41:46.903Z,18.48
2023-05-06T13:44:14.093Z,18.43
2023-05-06T13:46:43.012Z,18.28
2023-05-06T13:49:11.657Z,18.17
2023-05-06T13:51:38.898Z,18.15
2023-05-06T13:54:06.069Z,18.07
2023-05-06T13:56:34.347Z,18.11
2023-05-06T13:59:01.198Z,18.10
2023-05-06T14:01:28.422Z,18.00
2023-05-06T14:03:55.331Z,18.01
2023-05-06T14:06:22.434Z,17.94
2023-05-06T14:08:49.293Z,17.73
2023-05-06T14:11:16.508Z,17.57
2023-05-06T14:13:43.428Z,17.42
2023-05-06T14:16:10.657Z,17.38
2023-05-06T14:18:37.530Z,17.35
2023-05-06T14:21:04.726Z,17.32
2023-05-06T14:23:32.592Z,17.35
2023-05-06T14:26:00.153Z,17.39
2023-05-06T14:28:27.002Z,17.40
2023-05-06T14:30:54.259Z,17.42
2023-05-06T14:33:23.235Z,17.45
2023-05-06T14:35:52.838Z,17.51
2023-05-06T14:38:20.164Z,17.53
2023-05-06T14:40:47.350Z,17.52
2023-05-06T14:43:14.182Z,17.55
2023-05-06T14:45:41.384Z,17.65
2023-05-06T14:48:08.418Z,17.70
2023-05-06T14:50:35.595Z,17.76
2023-05-06T14:53:03.786Z,17.79
2023-05-06T14:55:31.339Z,17.83
2023-05-06T14:57:58.236Z,17.85
2023-05-06T15:00:25.534Z,17.84
2023-05-06T15:02:52.408Z,17.76
2023-05-06T15:05:19.681Z,17.80
2023-05-06T15:07:46.544Z,17.89
2023-05-06T15:10:13.808Z,17.84
2023-05-06T15:12:40.879Z,17.89
2023-05-06T15:15:08.792Z,17.92
2023-05-06T15:17:35.865Z,17.89
2023-05-06T15:20:04.503Z,17.98
2023-05-06T15:22:31.352Z,17.98
2023-05-06T15:24:58.489Z,18.03
2023-05-06T15:27:25.515Z,18.01
2023-05-06T15:29:52.647Z,18.04
2023-05-06T15:32:19.554Z,18.06
2023-05-06T15:34:46.687Z,18.05
2023-05-06T15:37:15.958Z,18.01
2023-05-06T15:39:43.079Z,17.98
2023-05-06T15:42:10.943Z,17.89
2023-05-06T15:44:38.108Z,17.82
2023-05-06T15:47:05.312Z,17.77
2023-05-06T15:52:02.311Z,17.61
2023-05-06T15:54:29.561Z,17.60
2023-05-06T15:56:56.836Z,17.61
2023-05-06T15:59:24.065Z,17.59
2023-05-06T16:02:25.730Z,17.60
2023-05-06T16:04:38.520Z,17.51
2023-05-06T16:07:05.660Z,17.45
2023-05-06T16:09:32.876Z,17.43
2023-05-06T16:11:59.981Z,17.43
2023-05-06T16:14:27.165Z,17.45
2023-05-06T16:16:54.056Z,17.43
2023-05-06T16:19:21.213Z,17.37
2023-05-06T16:21:48.481Z,17.34
2023-05-06T16:24:16.171Z,17.25
2023-05-06T16:26:43.022Z,17.15
2023-05-06T16:29:10.336Z,16.99
2023-05-06T16:31:37.498Z,16.81
2023-05-06T16:34:04.754Z,16.56
2023-05-06T16:36:31.770Z,16.33
2023-05-06T16:38:58.892Z,16.02
2023-05-06T16:41:25.923Z,15.61
2023-05-06T16:43:53.098Z,15.35
2023-05-06T16:46:21.432Z,14.93
2023-05-06T16:48:51.515Z,14.63
2023-05-06T16:51:18.404Z,14.40
2023-05-06T16:53:45.567Z,14.19
2023-05-06T16:56:13.568Z,14.04
2023-05-06T16:58:41.154Z,13.92
2023-05-06T17:01:08.269Z,13.82
2023-05-06T17:03:38.645Z,13.79
2023-05-06T17:06:05.942Z,13.69
2023-05-06T17:08:36.235Z,13.66
2023-05-06T17:11:06.919Z,13.61
2023-05-06T17:13:34.775Z,13.57
2023-05-06T17:16:01.743Z,13.56
2023-05-06T17:18:29.012Z,13.51
2023-05-06T17:20:57.137Z,13.48
2023-05-06T17:23:25.118Z,13.38
2023-05-06T17:25:52.075Z,13.30
2023-05-06T17:28:19.276Z,13.22
2023-05-06T17:30:46.788Z,13.16
2023-05-06T17:33:14.150Z,13.06
2023-05-06T17:35:41.022Z,12.96
2023-05-06T17:38:11.080Z,12.88
2023-05-06T17:40:37.912Z,12.80
2023-05-06T17:43:05.157Z,12.72
2023-05-06T17:45:32.168Z,12.60
2023-05-06T17:48:00.641Z,12.49
2023-05-06T17:50:27.568Z,12.40
2023-05-06T17:52:55.318Z,12.33
2023-05-06T17:55:22.539Z,12.31
2023-05-06T17:57:50.333Z,12.29
2023-05-06T18:00:17.401Z,12.29
2023-05-06T18:02:45.443Z,12.23
2023-05-06T18:05:13.552Z,12.21
2023-05-06T18:07:41.134Z,12.19
2023-05-06T18:10:08.681Z,12.17
2023-05-06T18:12:36.174Z,12.16
2023-05-06T18:15:03.203Z,12.14
2023-05-06T18:17:30.705Z,12.12
2023-05-06T18:19:57.596Z,12.09
2023-05-06T18:22:24.763Z,12.06
2023-05-06T18:24:55.312Z,12.04
2023-05-06T18:27:23.164Z,12.02
2023-05-06T18:29:50.062Z,11.99
2023-05-06T18:32:18.340Z,11.92
2023-05-06T18:34:45.404Z,11.87
2023-05-06T18:37:12.663Z,11.82
2023-05-06T18:39:41.850Z,11.73
2023-05-06T18:42:09.842Z,11.61
2023-05-06T18:44:36.888Z,11.59
2023-05-06T18:47:04.138Z,11.57
2023-05-06T18:49:31.394Z,11.51
2023-05-06T18:51:58.697Z,11.50
2023-05-06T18:54:25.619Z,11.49
2023-05-06T18:56:52.769Z,11.47
2023-05-06T18:59:22.751Z,11.43
2023-05-06T19:01:49.952Z,11.42
2023-05-06T19:04:16.804Z,11.41
2023-05-06T19:06:43.909Z,11.39
2023-05-06T19:09:11.401Z,11.44
2023-05-06T19:11:38.808Z,11.48
2023-05-06T19:14:05.758Z,11.46
2023-05-06T19:16:32.970Z,11.47
2023-05-06T19:19:00.049Z,11.50
2023-05-06T19:21:27.992Z,11.54
2023-05-06T19:23:59.734Z,11.57
2023-05-06T19:26:30.047Z,11.57
2023-05-06T19:28:56.995Z,11.56
2023-05-06T19:31:24.278Z,11.56
2023-05-06T19:33:51.184Z,11.54
2023-05-06T19:36:18.355Z,11.50
2023-05-06T19:38:45.316Z,11.49
2023-05-06T19:41:13.269Z,11.50
2023-05-06T19:43:42.246Z,11.51
2023-05-06T19:46:10.735Z,11.51
2023-05-06T19:48:39.080Z,11.52
2023-05-06T19:51:06.840Z,11.53
2023-05-06T19:53:34.283Z,11.56
2023-05-06T19:56:14.390Z,11.55
2023-05-06T19:58:41.343Z,11.58
2023-05-06T20:01:09.290Z,11.62
2023-05-06T20:03:36.464Z,11.62
2023-05-06T20:06:04.221Z,11.64
2023-05-06T20:08:31.279Z,11.66
2023-05-06T20:10:58.487Z,11.66
2023-05-06T20:13:26.036Z,11.68
2023-05-06T20:15:54.988Z,11.69
2023-05-06T20:18:21.987Z,11.66
2023-05-06T20:20:49.281Z,11.68
2023-05-06T20:23:16.119Z,11.67
2023-05-06T20:25:43.234Z,11.63
2023-05-06T20:28:10.090Z,11.62
2023-05-06T20:30:38.559Z,11.61
2023-05-06T20:33:05.727Z,11.59
2023-05-06T20:35:38.157Z,11.59
2023-05-06T20:38:06.163Z,11.59
2023-05-06T20:40:35.757Z,11.59
2023-05-06T20:43:03.036Z,11.60
2023-05-06T20:45:31.467Z,11.60
2023-05-06T20:47:58.730Z,11.61
2023-05-06T20:50:26.313Z,11.61
2023-05-06T20:52:54.451Z,11.63
2023-05-06T20:55:23.389Z,11.64
2023-05-06T20:57:50.549Z,11.67
2023-05-06T21:00:18.069Z,11.69
2023-05-06T21:02:44.948Z,11.71
2023-05-06T21:05:12.354Z,11.73
2023-05-06T21:07:39.507Z,11.76
2023-05-06T21:10:07.062Z,11.77
2023-05-06T21:12:34.134Z,11.78
2023-05-06T21:15:01.421Z,11.81
2023-05-06T21:17:28.967Z,11.83
2023-05-06T21:19:56.434Z,11.83
2023-05-06T21:22:24.120Z,11.88
2023-05-06T21:24:51.454Z,11.91
2023-05-06T21:27:18.409Z,11.93
2023-05-06T21:29:45.622Z,11.94
2023-05-06T21:32:12.469Z,11.95
2023-05-06T21:34:39.664Z,11.95
2023-05-06T21:37:06.557Z,11.92
2023-05-06T21:39:33.758Z,11.90
2023-05-06T21:42:00.696Z,11.90
2023-05-06T21:44:27.840Z,11.83
2023-05-06T21:46:54.937Z,11.78
2023-05-06T21:49:22.423Z,11.76
2023-05-06T21:51:49.488Z,11.73
2023-05-06T21:54:17.428Z,11.68
2023-05-06T21:56:45.009Z,11.63
2023-05-06T21:59:12.275Z,11.55
2023-05-06T22:01:39.209Z,11.45
2023-05-06T22:04:11.505Z,11.38
2023-05-06T22:06:39.584Z,11.30
2023-05-06T22:09:09.630Z,11.20
2023-05-06T22:11:39.536Z,11.12
2023-05-06T22:14:07.032Z,11.08
2023-05-06T22:16:35.733Z,11.00
2023-05-06T22:19:04.041Z,10.96
2023-05-06T22:21:32.663Z,10.90
2023-05-06T22:24:00.027Z,10.87
2023-05-06T22:26:30.216Z,10.84
2023-05-06T22:28:57.393Z,10.79
2023-05-06T22:31:24.996Z,10.78
2023-05-06T22:33:58.093Z,10.77
2023-05-06T22:36:29.172Z,10.75
2023-05-06T22:38:56.590Z,10.73
2023-05-06T22:41:23.417Z,10.74
2023-05-06T22:43:50.753Z,10.76
2023-05-06T22:46:17.831Z,10.79
2023-05-06T22:48:46.376Z,10.82
2023-05-06T22:51:18.680Z,10.84
2023-05-06T22:53:45.791Z,10.87
2023-05-06T22:56:12.813Z,10.87
2023-05-06T22:58:39.963Z,10.86
2023-05-06T23:01:07.587Z,10.84
2023-05-06T23:03:35.860Z,10.84
2023-05-06T23:06:04.452Z,10.84
2023-05-06T23:08:31.742Z,10.78
2023-05-06T23:10:58.604Z,10.72
2023-05-06T23:13:26.619Z,10.66
2023-05-06T23:15:53.663Z,10.62
2023-05-06T23:18:20.928Z,10.56
2023-05-06T23:20:48.074Z,10.52
2023-05-06T23:23:15.212Z,10.48
2023-05-06T23:25:42.074Z,10.41
2023-05-06T23:28:09.252Z,10.34
2023-05-06T23:30:36.144Z,10.27
2023-05-06T23:33:03.866Z,10.23
2023-05-06T23:35:32.634Z,10.25
2023-05-06T23:37:59.810Z,10.20
2023-05-06T23:40:26.744Z,10.19
2023-05-06T23:42:53.827Z,10.20
2023-05-06T23:45:20.717Z,10.17
2023-05-06T23:47:47.898Z,10.17
2023-05-06T23:50:14.878Z,10.18
2023-05-06T23:52:42.229Z,10.18
2023-05-06T23:55:09.653Z,10.25
2023-05-06T23:57:36.909Z,10.30
